Time;durP1;ratioP1;P1;durP2;ratioP2;P2;SDS_P1;SDS_P2;PMS_P1;PMS_P2;Temp;Humidity;BMP_temperature;BMP_pressure;BME280_temperature;BME280_humidity;BME280_pressure;Samples;Min_cycle;Max_cycle;Signal;HPM_P1;HPM_P2
2023/03/29 00:01:24;;;;;;;;;;;;;;;;;;5043997;28;2199;-50
2023/03/29 00:03:50;;;;;;;;;;;;;;;;;;5047340;28;4788;-55
2023/03/29 00:06:20;;;;;;;;;;;;;;;;;;5034236;28;4436;-54
2023/03/29 00:08:46;;;;;;;;;;;;;;;;;;5045706;28;4468;-55
2023/03/29 00:11:12;;;;;;;;;;;;;;;;;;5039451;28;5081;-54
2023/03/29 00:13:38;;;;;;;;;;;;;;;;;;5053570;28;1139;-55
2023/03/29 00:16:04;;;;;;;;;;;;;;;;;;5043371;28;4443;-54
2023/03/29 00:18:29;;;;;;;;;;;;;;;;;;5046087;28;4670;-55
2023/03/29 00:20:55;;;;;;;;;;;;;;;;;;5042069;28;5054;-55
2023/03/29 00:23:21;;;;;;;;;;;;;;;;;;5047334;28;4946;-56
2023/03/29 00:25:46;;;;;;;;;;;;;;;;;;5047953;28;3183;-55
2023/03/29 00:28:13;;;;;;;;;;;;;;;;;;5045569;28;4932;-54
2023/03/29 00:30:38;;;;;;;;;;;;;;;;;;5042382;28;4612;-56
2023/03/29 00:33:04;;;;;;;;;;;;;;;;;;5045595;28;4675;-56
2023/03/29 00:35:29;;;;;;;;;;;;;;;;;;5042848;28;5023;-55
2023/03/29 00:37:56;;;;;;;;;;;;;;;;;;5044679;28;5077;-52
2023/03/29 00:40:21;;;;;;;;;;;;;;;;;;5048084;28;3191;-55
2023/03/29 00:42:46;;;;;;;;;;;;;;;;;;5078096;28;4668;-54
2023/03/29 00:45:11;;;;;;;;;;;;;;;;;;5047795;28;4950;-55
2023/03/29 00:47:40;;;;;;;;;;;;;;;;;;5042916;28;4432;-54
2023/03/29 00:50:07;;;;;;;;;;;;;;;;;;5073329;28;4940;-53
2023/03/29 00:52:32;;;;;;;;;;;;;;;;;;5054789;28;3026;-54
2023/03/29 00:54:58;;;;;;;;;;;;;;;;;;5075633;28;4868;-55
2023/03/29 00:57:24;;;;;;;;;;;;;;;;;;5044867;28;4648;-56
2023/03/29 00:59:49;;;;;;;;;;;;;;;;;;5046737;28;4673;-56
2023/03/29 01:02:14;;;;;;;;;;;;;;;;;;5078550;28;4503;-53
2023/03/29 01:04:41;;;;;;;;;;;;;;;;;;5078868;28;4744;-56
2023/03/29 01:07:17;;;;;;;;;;;;;;;;;;5050754;28;4723;-55
2023/03/29 01:09:43;;;;;;;;;;;;;;;;;;5076128;28;5010;-55
2023/03/29 01:12:15;;;;;;;;;;;;;;;;;;5055804;28;4991;-55
2023/03/29 01:15:01;;;;;;;;;;;;;;;;;;5043134;28;4947;-55
2023/03/29 01:17:30;;;;;;;;;;;;;;;;;;5048243;28;4451;-55
2023/03/29 01:19:59;;;;;;;;;;;;;;;;;;5045829;28;4525;-55
2023/03/29 01:22:30;;;;;;;;;;;;;;;;;;5038322;28;1190;-55
2023/03/29 01:25:02;;;;;;;;;;;;;;;;;;5078386;28;4962;-55
2023/03/29 01:27:33;;;;;;;;;;;;;;;;;;5082818;28;5058;-55
2023/03/29 01:29:59;;;;;;;;;;;;;;;;;;5074522;28;4694;-55
2023/03/29 01:32:26;;;;;;;;;;;;;;;;;;5077935;28;4440;-56
2023/03/29 01:35:03;;;;;;;;;;;;;;;;;;5051046;28;3270;-54
2023/03/29 01:37:29;;;;;;;;;;;;;;;;;;5057089;28;5264;-54
2023/03/29 01:39:54;;;;;;;;;;;;;;;;;;5078915;28;4425;-55
2023/03/29 01:42:38;;;;;;;;;;;;;;;;;;5045885;28;4995;-56
2023/03/29 01:45:03;;;;;;;;;;;;;;;;;;5049242;28;4721;-55
2023/03/29 01:47:30;;;;;;;;;;;;;;;;;;5050541;28;4494;-55
2023/03/29 01:50:01;;;;;;;;;;;;;;;;;;5074393;28;4879;-55
2023/03/29 01:52:31;;;;;;;;;;;;;;;;;;5045147;28;3209;-55
2023/03/29 01:55:01;;;;;;;;;;;;;;;;;;5080418;28;4607;-55
2023/03/29 01:57:27;;;;;;;;;;;;;;;;;;5075241;28;4958;-55
2023/03/29 01:59:52;;;;;;;;;;;;;;;;;;5037972;28;6055;-51
2023/03/29 02:02:18;;;;;;;;;;;;;;;;;;5081184;28;4503;-55
2023/03/29 02:04:46;;;;;;;;;;;;;;;;;;5081367;28;4836;-54
2023/03/29 02:07:12;;;;;;;;;;;;;;;;;;5049374;28;5977;-55
2023/03/29 02:09:37;;;;;;;;;;;;;;;;;;5040622;28;4596;-53
2023/03/29 02:12:03;;;;;;;;;;;;;;;;;;5045973;28;4522;-54
2023/03/29 02:14:29;;;;;;;;;;;;;;;;;;5080952;28;4545;-54
2023/03/29 02:16:54;;;;;;;;;;;;;;;;;;5047276;28;4522;-53
2023/03/29 02:19:20;;;;;;;;;;;;;;;;;;5050729;28;1234;-55
2023/03/29 02:21:50;;;;;;;;;;;;;;;;;;5040351;28;4697;-56
2023/03/29 02:24:16;;;;;;;;;;;;;;;;;;5049958;28;4672;-55
2023/03/29 02:26:42;;;;;;;;;;;;;;;;;;5081290;28;5257;-55
2023/03/29 02:29:07;;;;;;;;;;;;;;;;;;5078204;28;4532;-55
2023/03/29 02:31:34;;;;;;;;;;;;;;;;;;5063928;28;3198;-54
2023/03/29 02:34:06;;;;;;;;;;;;;;;;;;5049477;28;4783;-55
2023/03/29 02:36:40;;;;;;;;;;;;;;;;;;5040725;28;4853;-56
2023/03/29 02:39:06;;;;;;;;;;;;;;;;;;5077415;28;4708;-56
2023/03/29 02:41:32;;;;;;;;;;;;;;;;;;5039869;28;5046;-54
2023/03/29 02:43:57;;;;;;;;;;;;;;;;;;5077088;28;4913;-55
2023/03/29 02:46:22;;;;;;;;;;;;;;;;;;5045401;28;3284;-54
2023/03/29 02:48:48;;;;;;;;;;;;;;;;;;5078183;28;4895;-56
2023/03/29 02:51:18;;;;;;;;;;;;;;;;;;5078989;28;4625;-56
2023/03/29 02:53:56;;;;;;;;;;;;;;;;;;5057211;28;5224;-55
2023/03/29 02:56:21;;;;;;;;;;;;;;;;;;5073486;28;4493;-55
2023/03/29 02:58:46;;;;;;;;;;;;;;;;;;5047659;28;1404;-56
2023/03/29 03:01:12;;;;;;;;;;;;;;;;;;5046206;28;4969;-55
2023/03/29 03:03:37;;;;;;;;;;;;;;;;;;5045645;28;4747;-56
2023/03/29 03:06:03;;;;;;;;;;;;;;;;;;5043132;28;5097;-54
2023/03/29 03:08:28;;;;;;;;;;;;;;;;;;5043523;28;4801;-57
2023/03/29 03:10:53;;;;;;;;;;;;;;;;;;5042399;28;3203;-56
2023/03/29 03:13:19;;;;;;;;;;;;;;;;;;5045627;28;4642;-53
2023/03/29 03:15:47;;;;;;;;;;;;;;;;;;5048801;28;4616;-56
2023/03/29 03:18:13;;;;;;;;;;;;;;;;;;5048948;28;4581;-53
2023/03/29 03:20:38;;;;;;;;;;;;;;;;;;5039328;28;4623;-55
2023/03/29 03:23:04;;;;;;;;;;;;;;;;;;5039520;28;5037;-56
2023/03/29 03:25:29;;;;;;;;;;;;;;;;;;5049510;28;1918;-56
2023/03/29 03:27:54;;;;;;;;;;;;;;;;;;5048275;28;4493;-56
2023/03/29 03:30:20;;;;;;;;;;;;;;;;;;5038172;28;4509;-55
2023/03/29 03:32:45;;;;;;;;;;;;;;;;;;5044341;28;4471;-55
2023/03/29 03:35:10;;;;;;;;;;;;;;;;;;5046958;28;4506;-54
2023/03/29 03:37:37;;;;;;;;;;;;;;;;;;5046202;28;1192;-55
2023/03/29 03:40:02;;;;;;;;;;;;;;;;;;5070834;28;4449;-56
2023/03/29 03:42:28;;;;;;;;;;;;;;;;;;5041667;28;4499;-56
2023/03/29 03:44:53;;;;;;;;;;;;;;;;;;5045475;28;4518;-54
2023/03/29 03:47:19;;;;;;;;;;;;;;;;;;5045803;28;4953;-56
2023/03/29 03:49:44;;;;;;;;;;;;;;;;;;5047666;28;2199;-55
2023/03/29 03:52:09;;;;;;;;;;;;;;;;;;5039833;28;4443;-56
2023/03/29 03:54:35;;;;;;;;;;;;;;;;;;5048049;28;4796;-55
2023/03/29 03:57:01;;;;;;;;;;;;;;;;;;5041602;28;4495;-56
2023/03/29 03:59:26;;;;;;;;;;;;;;;;;;5041522;28;4651;-55
2023/03/29 04:01:51;;;;;;;;;;;;;;;;;;5063887;28;3204;-54
2023/03/29 04:04:18;;;;;;;;;;;;;;;;;;5045719;28;4832;-55
2023/03/29 04:06:43;;;;;;;;;;;;;;;;;;5045088;28;4653;-56
2023/03/29 04:09:08;;;;;;;;;;;;;;;;;;5047409;28;4488;-56
2023/03/29 04:11:34;;;;;;;;;;;;;;;;;;5045464;28;4498;-54
2023/03/29 04:13:59;;;;;;;;;;;;;;;;;;5042836;28;4577;-54
2023/03/29 04:16:25;;;;;;;;;;;;;;;;;;5039838;28;3305;-56
2023/03/29 04:18:50;;;;;;;;;;;;;;;;;;5042918;28;5194;-55
2023/03/29 04:21:15;;;;;;;;;;;;;;;;;;5039543;28;4456;-57
2023/03/29 04:23:41;;;;;;;;;;;;;;;;;;5043286;28;5043;-56
2023/03/29 04:26:07;;;;;;;;;;;;;;;;;;5047059;28;4502;-54
2023/03/29 04:28:32;;;;;;;;;;;;;;;;;;5043006;28;3445;-54
2023/03/29 04:30:58;;;;;;;;;;;;;;;;;;5041660;28;4964;-55
2023/03/29 04:33:23;;;;;;;;;;;;;;;;;;5046597;28;4495;-55
2023/03/29 04:35:48;;;;;;;;;;;;;;;;;;5043390;28;4703;-55
2023/03/29 04:38:15;;;;;;;;;;;;;;;;;;5048941;28;4528;-56
2023/03/29 04:40:40;;;;;;;;;;;;;;;;;;5037690;28;3195;-58
2023/03/29 04:43:06;;;;;;;;;;;;;;;;;;5043919;28;4705;-51
2023/03/29 04:45:31;;;;;;;;;;;;;;;;;;5040903;28;5339;-51
2023/03/29 04:47:58;;;;;;;;;;;;;;;;;;5039820;28;5123;-54
2023/03/29 04:50:23;;;;;;;;;;;;;;;;;;5044639;28;4718;-53
2023/03/29 04:52:49;;;;;;;;;;;;;;;;;;5047490;28;1191;-52
2023/03/29 04:55:15;;;;;;;;;;;;;;;;;;5048424;28;4879;-53
2023/03/29 04:57:40;;;;;;;;;;;;;;;;;;5047723;28;4588;-55
2023/03/29 05:00:13;;;;;;;;;;;;;;;;;;5040177;28;4495;-54
2023/03/29 05:02:38;;;;;;;;;;;;;;;;;;5043891;28;4619;-55
2023/03/29 05:05:03;;;;;;;;;;;;;;;;;;5046800;28;5105;-53
2023/03/29 05:07:29;;;;;;;;;;;;;;;;;;5048058;28;1151;-54
2023/03/29 05:09:54;;;;;;;;;;;;;;;;;;5047038;28;4570;-54
2023/03/29 05:12:19;;;;;;;;;;;;;;;;;;5049142;28;4608;-54
2023/03/29 05:14:45;;;;;;;;;;;;;;;;;;5048643;28;4647;-54
2023/03/29 05:17:10;;;;;;;;;;;;;;;;;;5042403;28;4762;-52
2023/03/29 05:19:37;;;;;;;;;;;;;;;;;;5047183;28;3194;-54
2023/03/29 05:22:02;;;;;;;;;;;;;;;;;;5050845;28;4609;-51
2023/03/29 05:24:27;;;;;;;;;;;;;;;;;;5051073;28;5075;-55
2023/03/29 05:26:52;;;;;;;;;;;;;;;;;;5042691;28;4637;-56
2023/03/29 05:29:18;;;;;;;;;;;;;;;;;;5048697;28;4492;-51
2023/03/29 05:31:43;;;;;;;;;;;;;;;;;;5049542;28;1297;-53
2023/03/29 05:34:08;;;;;;;;;;;;;;;;;;5050716;28;4665;-53
2023/03/29 05:36:34;;;;;;;;;;;;;;;;;;5041200;28;4611;-52
2023/03/29 05:38:59;;;;;;;;;;;;;;;;;;5050545;28;4605;-55
2023/03/29 05:41:24;;;;;;;;;;;;;;;;;;5049911;28;4986;-55
2023/03/29 05:43:50;;;;;;;;;;;;;;;;;;5079535;28;1980;-55
2023/03/29 05:46:15;;;;;;;;;;;;;;;;;;5050422;28;5099;-53
2023/03/29 05:48:40;;;;;;;;;;;;;;;;;;5050157;28;4588;-52
2023/03/29 05:51:06;;;;;;;;;;;;;;;;;;5049879;28;5015;-53
2023/03/29 05:53:32;;;;;;;;;;;;;;;;;;5041633;28;4633;-51
2023/03/29 05:55:57;;;;;;;;;;;;;;;;;;5049979;28;4653;-52
2023/03/29 05:58:25;;;;;;;;;;;;;;;;;;5047191;28;1326;-54
2023/03/29 06:00:50;;;;;;;;;;;;;;;;;;5043831;28;5026;-52
2023/03/29 06:03:17;;;;;;;;;;;;;;;;;;5045180;28;4472;-55
2023/03/29 06:05:45;;;;;;;;;;;;;;;;;;5048259;28;5149;-54
2023/03/29 06:08:10;;;;;;;;;;;;;;;;;;5049664;28;4635;-54
2023/03/29 06:10:36;;;;;;;;;;;;;;;;;;5047310;28;1328;-57
2023/03/29 06:13:01;;;;;;;;;;;;;;;;;;5043280;28;4708;-52
2023/03/29 06:15:26;;;;;;;;;;;;;;;;;;5049767;28;4501;-54
2023/03/29 06:17:52;;;;;;;;;;;;;;;;;;5049783;28;4981;-55
2023/03/29 06:20:17;;;;;;;;;;;;;;;;;;5043759;28;4480;-53
2023/03/29 06:22:42;;;;;;;;;;;;;;;;;;5048716;28;1490;-53
2023/03/29 06:25:11;;;;;;;;;;;;;;;;;;5048997;28;4988;-53
2023/03/29 06:27:36;;;;;;;;;;;;;;;;;;5049341;28;4455;-53
2023/03/29 06:30:02;;;;;;;;;;;;;;;;;;5048005;28;5056;-53
2023/03/29 06:32:28;;;;;;;;;;;;;;;;;;5047602;28;4966;-53
2023/03/29 06:34:53;;;;;;;;;;;;;;;;;;5046012;28;3185;-54
2023/03/29 06:37:18;;;;;;;;;;;;;;;;;;5048840;28;4739;-53
2023/03/29 06:39:44;;;;;;;;;;;;;;;;;;5037622;28;5029;-52
2023/03/29 06:42:09;;;;;;;;;;;;;;;;;;5048799;28;4463;-53
2023/03/29 06:44:35;;;;;;;;;;;;;;;;;;5048717;28;4897;-53
2023/03/29 06:47:00;;;;;;;;;;;;;;;;;;5046201;28;4531;-53
2023/03/29 06:49:25;;;;;;;;;;;;;;;;;;5074842;28;1233;-52
2023/03/29 06:51:51;;;;;;;;;;;;;;;;;;5049061;28;4671;-55
2023/03/29 06:54:17;;;;;;;;;;;;;;;;;;5040767;28;4456;-53
2023/03/29 06:56:42;;;;;;;;;;;;;;;;;;5044826;28;5101;-53
2023/03/29 06:59:08;;;;;;;;;;;;;;;;;;5048879;28;4641;-54
2023/03/29 07:01:33;;;;;;;;;;;;;;;;;;5044528;28;3249;-55
2023/03/29 07:04:03;;;;;;;;;;;;;;;;;;5048085;28;5046;-53
2023/03/29 07:06:28;;;;;;;;;;;;;;;;;;5044682;28;4703;-52
2023/03/29 07:08:58;;;;;;;;;;;;;;;;;;5040838;28;4837;-51
2023/03/29 07:11:24;;;;;;;;;;;;;;;;;;5040465;28;4985;-55
2023/03/29 07:13:49;;;;;;;;;;;;;;;;;;5069079;28;3254;-54
2023/03/29 07:16:15;;;;;;;;;;;;;;;;;;5044613;28;4422;-53
2023/03/29 07:18:41;;;;;;;;;;;;;;;;;;5048055;28;4611;-52
2023/03/29 07:21:07;;;;;;;;;;;;;;;;;;5042886;28;4971;-53
2023/03/29 07:23:32;;;;;;;;;;;;;;;;;;5044930;28;4623;-54
2023/03/29 07:25:57;;;;;;;;;;;;;;;;;;5063414;28;4775;-53
2023/03/29 07:28:23;;;;;;;;;;;;;;;;;;5064001;28;1212;-55
2023/03/29 07:30:48;;;;;;;;;;;;;;;;;;5046491;28;4460;-52
2023/03/29 07:33:14;;;;;;;;;;;;;;;;;;5040978;28;4996;-53
2023/03/29 07:35:42;;;;;;;;;;;;;;;;;;5040961;28;4671;-53
2023/03/29 07:38:07;;;;;;;;;;;;;;;;;;5047411;28;4595;-52
2023/03/29 07:40:33;;;;;;;;;;;;;;;;;;5045784;28;1126;-54
2023/03/29 07:42:58;;;;;;;;;;;;;;;;;;5046183;28;4712;-53
2023/03/29 07:45:24;;;;;;;;;;;;;;;;;;5047659;28;4717;-53
2023/03/29 07:47:52;;;;;;;;;;;;;;;;;;5047974;28;4559;-52
2023/03/29 07:50:18;;;;;;;;;;;;;;;;;;5039337;28;4636;-53
2023/03/29 07:52:43;;;;;;;;;;;;;;;;;;5046694;28;1418;-52
2023/03/29 07:55:09;;;;;;;;;;;;;;;;;;5047595;28;4624;-53
2023/03/29 07:57:34;;;;;;;;;;;;;;;;;;5069600;28;4993;-55
2023/03/29 07:59:59;;;;;;;;;;;;;;;;;;5049723;28;4772;-54
2023/03/29 08:02:26;;;;;;;;;;;;;;;;;;5053124;28;4637;-54
2023/03/29 08:04:52;;;;;;;;;;;;;;;;;;5050453;28;4824;-51
2023/03/29 08:07:20;;;;;;;;;;;;;;;;;;5058834;28;4708;-53
2023/03/29 08:09:45;;;;;;;;;;;;;;;;;;5059650;28;4527;-53
2023/03/29 08:12:11;;;;;;;;;;;;;;;;;;5047887;28;4475;-52
2023/03/29 08:14:37;;;;;;;;;;;;;;;;;;5082477;28;4622;-52
2023/03/29 08:17:02;;;;;;;;;;;;;;;;;;5048718;28;4931;-53
2023/03/29 08:19:27;;;;;;;;;;;;;;;;;;5058102;28;1967;-53
2023/03/29 08:21:53;;;;;;;;;;;;;;;;;;5044423;28;4775;-57
2023/03/29 08:24:18;;;;;;;;;;;;;;;;;;5053331;28;5230;-52
2023/03/29 08:26:43;;;;;;;;;;;;;;;;;;5058246;28;4483;-53
2023/03/29 08:29:09;;;;;;;;;;;;;;;;;;5055945;28;4665;-56
2023/03/29 08:31:34;;;;;;;;;;;;;;;;;;5044813;28;3251;-68
2023/03/29 08:33:59;;;;;;;;;;;;;;;;;;5052298;28;4792;-67
2023/03/29 08:36:25;;;;;;;;;;;;;;;;;;5054178;28;4607;-65
2023/03/29 08:38:50;;;;;;;;;;;;;;;;;;5057289;28;5024;-69
2023/03/29 08:41:24;;;;;;;;;;;;;;;;;;5072146;28;4472;-60
2023/03/29 08:43:53;;;;;;;;;;;;;;;;;;5047597;28;1921;-61
2023/03/29 08:46:31;;;;;;;;;;;;;;;;;;5048215;28;5101;-61
2023/03/29 08:48:58;;;;;;;;;;;;;;;;;;5047607;28;4396;-63
2023/03/29 08:51:25;;;;;;;;;;;;;;;;;;5047790;28;4495;-62
2023/03/29 08:53:51;;;;;;;;;;;;;;;;;;5044233;28;4827;-64
2023/03/29 08:56:20;;;;;;;;;;;;;;;;;;5048265;28;4523;-63
2023/03/29 08:58:45;;;;;;;;;;;;;;;;;;5061013;28;1259;-59
2023/03/29 09:01:11;;;;;;;;;;;;;;;;;;5044595;28;4566;-61
2023/03/29 09:04:01;;;;;;;;;;;;;;;;;;5074011;28;5297;-60
2023/03/29 09:06:27;;;;;;;;;;;;;;;;;;5046410;28;4500;-62
2023/03/29 09:08:52;;;;;;;;;;;;;;;;;;5077104;28;4744;-62
2023/03/29 09:11:20;;;;;;;;;;;;;;;;;;5047739;28;4849;-61
2023/03/29 09:14:01;;;;;;;;;;;;;;;;;;5045980;28;3182;-61
2023/03/29 09:16:32;;;;;;;;;;;;;;;;;;5054618;28;5128;-59
2023/03/29 09:19:05;;;;;;;;;;;;;;;;;;5048715;28;4535;-60
2023/03/29 09:21:33;;;;;;;;;;;;;;;;;;5083411;28;4537;-63
2023/03/29 09:24:17;;;;;;;;;;;;;;;;;;5080193;28;5117;-59
2023/03/29 09:26:46;;;;;;;;;;;;;;;;;;5047660;28;4951;-60
2023/03/29 09:29:12;;;;;;;;;;;;;;;;;;5079939;28;4463;-60
2023/03/29 09:31:38;;;;;;;;;;;;;;;;;;5056250;28;3392;-60
2023/03/29 09:34:05;;;;;;;;;;;;;;;;;;5042356;28;4424;-59
2023/03/29 09:36:31;;;;;;;;;;;;;;;;;;5078238;28;5950;-62
2023/03/29 09:38:56;;;;;;;;;;;;;;;;;;5073609;28;5070;-60
2023/03/29 09:41:26;;;;;;;;;;;;;;;;;;5051915;28;4686;-58
2023/03/29 09:43:52;;;;;;;;;;;;;;;;;;5048307;28;3374;-60
2023/03/29 09:46:22;;;;;;;;;;;;;;;;;;5055712;28;4857;-59
2023/03/29 09:48:47;;;;;;;;;;;;;;;;;;5035681;28;5471;-58
2023/03/29 09:51:12;;;;;;;;;;;;;;;;;;5057181;28;4735;-60
2023/03/29 09:53:38;;;;;;;;;;;;;;;;;;5083773;28;4529;-59
2023/03/29 09:56:03;;;;;;;;;;;;;;;;;;5052251;28;4456;-58
2023/03/29 09:58:30;;;;;;;;;;;;;;;;;;5049617;28;1091;-60
2023/03/29 10:00:56;;;;;;;;;;;;;;;;;;5051362;28;4417;-59
2023/03/29 10:03:26;;;;;;;;;;;;;;;;;;5051873;28;4697;-58
2023/03/29 10:05:54;;;;;;;;;;;;;;;;;;5047704;28;4796;-59
2023/03/29 10:08:28;;;;;;;;;;;;;;;;;;5080345;28;4480;-58
2023/03/29 10:10:55;;;;;;;;;;;;;;;;;;5060325;28;1221;-59
2023/03/29 10:13:22;;;;;;;;;;;;;;;;;;5058194;28;6443;-62
2023/03/29 10:16:17;;;;;;;;;;;;;;;;;;5047039;28;4616;-60
2023/03/29 10:18:42;;;;;;;;;;;;;;;;;;5041166;28;4706;-61
2023/03/29 10:21:08;;;;;;;;;;;;;;;;;;5053133;28;4672;-59
2023/03/29 10:23:34;;;;;;;;;;;;;;;;;;5082984;28;4621;-59
2023/03/29 10:26:04;;;;;;;;;;;;;;;;;;5047765;28;4460;-59
2023/03/29 10:28:29;;;;;;;;;;;;;;;;;;5081022;28;1175;-59
2023/03/29 10:30:56;;;;;;;;;;;;;;;;;;5048860;28;4485;-60
2023/03/29 10:33:22;;;;;;;;;;;;;;;;;;5052878;28;4703;-61
2023/03/29 10:35:48;;;;;;;;;;;;;;;;;;5053281;28;4636;-61
2023/03/29 10:38:14;;;;;;;;;;;;;;;;;;5054549;28;4941;-60
2023/03/29 10:40:46;;;;;;;;;;;;;;;;;;5048956;28;1122;-63
2023/03/29 10:43:12;;;;;;;;;;;;;;;;;;5046867;28;4574;-59
2023/03/29 10:45:38;;;;;;;;;;;;;;;;;;5055538;28;4919;-60
2023/03/29 10:48:05;;;;;;;;;;;;;;;;;;5044125;28;5020;-59
2023/03/29 10:50:32;;;;;;;;;;;;;;;;;;5046301;28;4655;-59
2023/03/29 10:52:57;;;;;;;;;;;;;;;;;;5048261;28;5201;-59
2023/03/29 10:55:23;;;;;;;;;;;;;;;;;;5047526;28;1225;-59
2023/03/29 10:57:51;;;;;;;;;;;;;;;;;;5075711;28;4698;-59
2023/03/29 11:00:19;;;;;;;;;;;;;;;;;;5043647;28;5001;-58
2023/03/29 11:02:57;;;;;;;;;;;;;;;;;;5077864;28;4528;-59
2023/03/29 11:05:35;;;;;;;;;;;;;;;;;;5043308;28;4748;-58
2023/03/29 11:08:00;;;;;;;;;;;;;;;;;;5045294;28;4487;-58
2023/03/29 11:10:52;;;;;;;;;;;;;;;;;;5047367;28;1054;-59
2023/03/29 11:13:33;;;;;;;;;;;;;;;;;;5044425;28;4496;-58
2023/03/29 11:16:08;;;;;;;;;;;;;;;;;;5045964;28;4431;-60
2023/03/29 11:18:34;;;;;;;;;;;;;;;;;;5046791;28;4873;-60
2023/03/29 11:21:08;;;;;;;;;;;;;;;;;;5048428;28;4445;-60
2023/03/29 11:23:57;;;;;;;;;;;;;;;;;;5085812;28;4468;-59
2023/03/29 11:26:31;;;;;;;;;;;;;;;;;;5025581;28;4640;-59
2023/03/29 11:29:18;;;;;;;;;;;;;;;;;;5054924;28;4684;-59
2023/03/29 11:32:06;;;;;;;;;;;;;;;;;;5049810;28;1543;-59
2023/03/29 11:34:38;;;;;;;;;;;;;;;;;;5041090;28;5092;-59
2023/03/29 11:37:08;;;;;;;;;;;;;;;;;;5052654;28;4425;-59
2023/03/29 11:39:33;;;;;;;;;;;;;;;;;;5058891;28;4731;-57
2023/03/29 11:42:13;;;;;;;;;;;;;;;;;;5046296;28;5090;-60
2023/03/29 11:44:38;;;;;;;;;;;;;;;;;;5046495;28;4507;-61
2023/03/29 11:47:11;;;;;;;;;;;;;;;;;;5058264;28;5436;-61
2023/03/29 11:49:37;;;;;;;;;;;;;;;;;;5048448;28;3060;-61
2023/03/29 11:52:05;;;;;;;;;;;;;;;;;;5053860;28;4808;-60
2023/03/29 11:54:39;;;;;;;;;;;;;;;;;;5050201;28;4547;-60
2023/03/29 11:57:34;;;;;;;;;;;;;;;;;;5037870;28;4781;-60
2023/03/29 12:00:01;;;;;;;;;;;;;;;;;;5005862;28;5133;-60
2023/03/29 12:02:46;;;;;;;;;;;;;;;;;;5065926;28;4551;-61
2023/03/29 12:05:26;;;;;;;;;;;;;;;;;;5076346;28;5029;-62
2023/03/29 12:08:03;;;;;;;;;;;;;;;;;;5054207;28;1117;-60
2023/03/29 12:10:35;;;;;;;;;;;;;;;;;;5039267;28;5166;-60
2023/03/29 12:13:19;;;;;;;;;;;;;;;;;;5048784;28;4512;-61
2023/03/29 12:15:49;;;;;;;;;;;;;;;;;;5047275;28;4584;-61
2023/03/29 12:18:28;;;;;;;;;;;;;;;;;;5055054;28;4657;-60
2023/03/29 12:21:03;;;;;;;;;;;;;;;;;;5057838;28;5049;-61
2023/03/29 12:23:31;;;;;;;;;;;;;;;;;;5061069;28;4697;-61
2023/03/29 12:26:02;;;;;;;;;;;;;;;;;;5050292;28;4595;-61
2023/03/29 12:28:39;;;;;;;;;;;;;;;;;;5054334;28;1221;-60
2023/03/29 12:31:05;;;;;;;;;;;;;;;;;;5041905;28;4835;-60
2023/03/29 12:33:33;;;;;;;;;;;;;;;;;;5094075;28;4565;-61
2023/03/29 12:36:07;;;;;;;;;;;;;;;;;;5053110;28;4721;-61
2023/03/29 12:38:33;;;;;;;;;;;;;;;;;;5058627;28;4609;-60
2023/03/29 12:40:59;;;;;;;;;;;;;;;;;;5090955;28;4641;-60
2023/03/29 12:43:30;;;;;;;;;;;;;;;;;;5055314;28;1175;-60
2023/03/29 12:46:09;;;;;;;;;;;;;;;;;;5052199;28;5042;-61
2023/03/29 12:48:36;;;;;;;;;;;;;;;;;;5064971;28;4621;-60
2023/03/29 12:51:02;;;;;;;;;;;;;;;;;;5047480;28;4540;-60
2023/03/29 12:53:53;;;;;;;;;;;;;;;;;;5045879;28;4451;-60
2023/03/29 12:56:22;;;;;;;;;;;;;;;;;;5048618;28;4635;-58
2023/03/29 12:58:49;;;;;;;;;;;;;;;;;;5046304;28;3266;-59
2023/03/29 13:01:27;;;;;;;;;;;;;;;;;;5045542;28;4831;-60
2023/03/29 13:04:09;;;;;;;;;;;;;;;;;;5047374;28;5032;-61
2023/03/29 13:06:47;;;;;;;;;;;;;;;;;;5066667;28;4687;-61
2023/03/29 13:09:21;;;;;;;;;;;;;;;;;;5049649;28;4842;-61
2023/03/29 13:11:51;;;;;;;;;;;;;;;;;;5055592;28;4441;-61
2023/03/29 13:14:16;;;;;;;;;;;;;;;;;;5048270;28;5103;-60
2023/03/29 13:16:42;;;;;;;;;;;;;;;;;;5088554;28;1389;-61
2023/03/29 13:19:07;;;;;;;;;;;;;;;;;;5051708;28;4758;-62
2023/03/29 13:21:36;;;;;;;;;;;;;;;;;;5047979;28;5107;-61
2023/03/29 13:24:01;;;;;;;;;;;;;;;;;;5082542;28;4663;-61
2023/03/29 13:26:36;;;;;;;;;;;;;;;;;;5046729;28;4633;-62
2023/03/29 13:29:20;;;;;;;;;;;;;;;;;;5045734;28;4467;-61
2023/03/29 13:31:55;;;;;;;;;;;;;;;;;;5043195;28;3302;-61
2023/03/29 13:34:26;;;;;;;;;;;;;;;;;;5051067;28;4869;-61
2023/03/29 13:36:52;;;;;;;;;;;;;;;;;;5048880;28;4458;-62
2023/03/29 13:39:21;;;;;;;;;;;;;;;;;;5051472;28;4529;-62
2023/03/29 13:41:50;;;;;;;;;;;;;;;;;;5079722;28;4756;-62
2023/03/29 13:44:25;;;;;;;;;;;;;;;;;;5044883;28;4519;-61
2023/03/29 13:47:01;;;;;;;;;;;;;;;;;;5091304;28;3210;-63
2023/03/29 13:49:26;;;;;;;;;;;;;;;;;;5049352;28;4601;-62
2023/03/29 13:51:52;;;;;;;;;;;;;;;;;;5050531;28;4555;-61
2023/03/29 13:54:25;;;;;;;;;;;;;;;;;;5048335;28;4458;-62
2023/03/29 13:57:01;;;;;;;;;;;;;;;;;;5043706;28;5747;-61
2023/03/29 13:59:29;;;;;;;;;;;;;;;;;;5080025;28;4489;-60
2023/03/29 14:01:56;;;;;;;;;;;;;;;;;;5079413;28;3299;-60
2023/03/29 14:04:25;;;;;;;;;;;;;;;;;;5052177;28;5030;-60
2023/03/29 14:06:53;;;;;;;;;;;;;;;;;;5062231;28;4462;-60
2023/03/29 14:09:18;;;;;;;;;;;;;;;;;;5089154;28;4502;-62
2023/03/29 14:11:44;;;;;;;;;;;;;;;;;;5046978;28;4530;-59
2023/03/29 14:14:09;;;;;;;;;;;;;;;;;;5040822;28;4993;-60
2023/03/29 14:16:35;;;;;;;;;;;;;;;;;;5078537;28;3442;-59
2023/03/29 14:19:05;;;;;;;;;;;;;;;;;;5048712;28;5022;-60
2023/03/29 14:21:30;;;;;;;;;;;;;;;;;;5080892;28;4423;-59
2023/03/29 14:24:00;;;;;;;;;;;;;;;;;;5046155;28;4637;-60
2023/03/29 14:26:29;;;;;;;;;;;;;;;;;;5082967;28;4658;-59
2023/03/29 14:28:55;;;;;;;;;;;;;;;;;;5051077;28;3218;-59
2023/03/29 14:31:24;;;;;;;;;;;;;;;;;;5048927;28;4886;-59
2023/03/29 14:33:56;;;;;;;;;;;;;;;;;;5038756;28;4620;-59
2023/03/29 14:36:22;;;;;;;;;;;;;;;;;;5053495;28;4505;-59
2023/03/29 14:38:48;;;;;;;;;;;;;;;;;;5042748;28;5154;-57
2023/03/29 14:41:14;;;;;;;;;;;;;;;;;;5083427;28;4678;-59
2023/03/29 14:43:39;;;;;;;;;;;;;;;;;;5050101;28;3475;-61
2023/03/29 14:46:04;;;;;;;;;;;;;;;;;;5046708;28;5068;-60
2023/03/29 14:48:32;;;;;;;;;;;;;;;;;;5034753;28;4558;-60
2023/03/29 14:50:57;;;;;;;;;;;;;;;;;;5049335;28;4660;-60
2023/03/29 14:53:23;;;;;;;;;;;;;;;;;;5086152;28;4786;-60
2023/03/29 14:55:50;;;;;;;;;;;;;;;;;;5058433;28;1210;-60
2023/03/29 14:58:18;;;;;;;;;;;;;;;;;;5040915;28;4413;-60
2023/03/29 15:00:43;;;;;;;;;;;;;;;;;;5086760;28;4904;-60
2023/03/29 15:03:12;;;;;;;;;;;;;;;;;;5054990;28;4465;-60
2023/03/29 15:05:38;;;;;;;;;;;;;;;;;;5051436;28;4963;-60
2023/03/29 15:08:06;;;;;;;;;;;;;;;;;;5049766;28;4464;-61
2023/03/29 15:10:31;;;;;;;;;;;;;;;;;;5079662;28;1245;-61
2023/03/29 15:12:57;;;;;;;;;;;;;;;;;;5071277;28;4440;-60
2023/03/29 15:15:22;;;;;;;;;;;;;;;;;;5054224;28;4678;-61
2023/03/29 15:17:48;;;;;;;;;;;;;;;;;;5052758;28;4467;-61
2023/03/29 15:20:32;;;;;;;;;;;;;;;;;;5055505;28;5280;-61
2023/03/29 15:22:57;;;;;;;;;;;;;;;;;;5048379;28;5161;-59
2023/03/29 15:25:24;;;;;;;;;;;;;;;;;;5052931;28;3372;-59
2023/03/29 15:27:50;;;;;;;;;;;;;;;;;;5047646;28;5042;-59
2023/03/29 15:30:16;;;;;;;;;;;;;;;;;;5051849;28;4506;-59
2023/03/29 15:32:41;;;;;;;;;;;;;;;;;;5047522;28;5070;-59
2023/03/29 15:35:08;;;;;;;;;;;;;;;;;;5050157;28;4507;-59
2023/03/29 15:37:33;;;;;;;;;;;;;;;;;;5049387;28;3237;-58
2023/03/29 15:39:58;;;;;;;;;;;;;;;;;;5048266;28;4519;-59
2023/03/29 15:42:24;;;;;;;;;;;;;;;;;;5049995;28;4815;-58
2023/03/29 15:44:52;;;;;;;;;;;;;;;;;;5081932;28;5834;-59
2023/03/29 15:47:18;;;;;;;;;;;;;;;;;;5045756;28;4590;-58
2023/03/29 15:49:45;;;;;;;;;;;;;;;;;;5047799;28;2974;-59
2023/03/29 15:52:11;;;;;;;;;;;;;;;;;;5051122;28;4483;-59
2023/03/29 15:54:36;;;;;;;;;;;;;;;;;;5056167;28;5050;-59
2023/03/29 15:57:02;;;;;;;;;;;;;;;;;;5083559;28;4987;-59
2023/03/29 15:59:29;;;;;;;;;;;;;;;;;;5055917;28;4568;-59
2023/03/29 16:01:55;;;;;;;;;;;;;;;;;;5062806;28;3182;-59
2023/03/29 16:04:20;;;;;;;;;;;;;;;;;;5075720;28;4981;-59
2023/03/29 16:06:47;;;;;;;;;;;;;;;;;;5046032;28;5218;-59
2023/03/29 16:09:12;;;;;;;;;;;;;;;;;;5049862;28;4727;-59
2023/03/29 16:11:38;;;;;;;;;;;;;;;;;;5055010;28;4571;-59
2023/03/29 16:14:23;;;;;;;;;;;;;;;;;;5047265;28;4664;-59
2023/03/29 16:16:49;;;;;;;;;;;;;;;;;;5047681;28;3284;-57
2023/03/29 16:19:15;;;;;;;;;;;;;;;;;;5048024;28;4589;-59
2023/03/29 16:21:41;;;;;;;;;;;;;;;;;;5051564;28;4466;-59
2023/03/29 16:24:09;;;;;;;;;;;;;;;;;;5052316;28;4695;-59
2023/03/29 16:26:34;;;;;;;;;;;;;;;;;;5072921;28;4521;-58
2023/03/29 16:29:00;;;;;;;;;;;;;;;;;;5056661;28;5010;-59
2023/03/29 16:31:25;;;;;;;;;;;;;;;;;;5057837;28;3153;-58
2023/03/29 16:33:51;;;;;;;;;;;;;;;;;;5053988;28;5020;-59
2023/03/29 16:36:16;;;;;;;;;;;;;;;;;;5053566;28;4603;-58
2023/03/29 16:38:41;;;;;;;;;;;;;;;;;;5052461;28;4449;-59
2023/03/29 16:41:08;;;;;;;;;;;;;;;;;;5057134;28;4427;-59
2023/03/29 16:43:37;;;;;;;;;;;;;;;;;;5049199;28;1209;-59
2023/03/29 16:46:02;;;;;;;;;;;;;;;;;;5054924;28;5103;-59
2023/03/29 16:48:28;;;;;;;;;;;;;;;;;;5058213;28;4437;-60
2023/03/29 16:50:53;;;;;;;;;;;;;;;;;;5062535;28;5622;-60
2023/03/29 16:53:20;;;;;;;;;;;;;;;;;;5050622;28;4848;-60
2023/03/29 16:55:45;;;;;;;;;;;;;;;;;;5060244;28;3027;-59
2023/03/29 16:58:10;;;;;;;;;;;;;;;;;;5055065;28;4876;-58
2023/03/29 17:00:36;;;;;;;;;;;;;;;;;;5086373;28;4454;-58
2023/03/29 17:03:02;;;;;;;;;;;;;;;;;;5054928;28;4634;-57
2023/03/29 17:05:27;;;;;;;;;;;;;;;;;;5043445;28;4644;-59
2023/03/29 17:07:54;;;;;;;;;;;;;;;;;;5059908;28;3376;-59